Time;durP1;ratioP1;P1;durP2;ratioP2;P2;SDS_P1;SDS_P2;PMS_P1;PMS_P2;Temp;Humidity;BMP_temperature;BMP_pressure;BME280_temperature;BME280_humidity;BME280_pressure;Samples;Min_cycle;Max_cycle;Signal;HPM_P1;HPM_P2
2022/03/01 00:00:00;;;;;;;15.23;9.23;;;3.00;98.60;;;;;;6100798;23;20024;-79
2022/03/01 00:02:26;;;;;;;16.42;9.63;;;3.00;98.60;;;;;;6101008;23;20057;-80
2022/03/01 00:04:53;;;;;;;14.30;9.13;;;2.90;98.70;;;;;;6101076;23;20480;-79
2022/03/01 00:07:18;;;;;;;15.30;9.45;;;3.00;99.00;;;;;;6101380;23;20021;-79
2022/03/01 00:09:44;;;;;;;14.35;9.00;;;2.90;99.10;;;;;;6100772;23;20152;-79
2022/03/01 00:12:10;;;;;;;16.85;9.57;;;3.70;99.20;;;;;;6125282;23;20032;-79
2022/03/01 00:14:36;;;;;;;14.48;9.43;;;2.90;99.20;;;;;;6101069;23;20024;-79
2022/03/01 00:17:02;;;;;;;15.57;9.25;;;2.90;99.40;;;;;;6124820;23;20113;-79
2022/03/01 00:19:29;;;;;;;16.35;9.38;;;2.80;99.40;;;;;;6100656;23;20096;-80
2022/03/01 00:21:58;;;;;;;19.13;9.43;;;3.00;99.70;;;;;;6099841;23;20238;-79
2022/03/01 00:24:24;;;;;;;18.27;9.45;;;2.70;99.70;;;;;;6099420;23;20073;-79
2022/03/01 00:26:49;;;;;;;19.27;9.73;;;2.60;99.90;;;;;;6100362;23;20021;-79
2022/03/01 00:29:15;;;;;;;16.02;9.88;;;2.70;99.90;;;;;;6099838;23;20493;-79
2022/03/01 00:31:41;;;;;;;16.55;9.73;;;2.60;99.90;;;;;;6119836;23;20503;-79
2022/03/01 00:34:07;;;;;;;15.65;10.02;;;2.70;99.90;;;;;;6072027;23;20141;-79
2022/03/01 00:36:33;;;;;;;16.02;9.95;;;2.70;99.90;;;;;;6071333;23;20319;-79
2022/03/01 00:38:59;;;;;;;19.10;9.57;;;2.40;99.90;;;;;;6095148;23;20065;-79
2022/03/01 00:41:25;;;;;;;16.98;10.02;;;2.30;99.90;;;;;;6071904;23;20014;-79
2022/03/01 00:43:50;;;;;;;13.27;9.32;;;2.30;99.90;;;;;;6024243;23;20036;-79
2022/03/01 00:46:17;;;;;;;17.27;9.65;;;3.10;99.90;;;;;;6071280;23;20018;-79
2022/03/01 00:48:43;;;;;;;17.77;10.60;;;2.30;99.90;;;;;;6095737;23;20480;-79
2022/03/01 00:51:09;;;;;;;21.58;10.48;;;2.20;99.90;;;;;;6071955;23;20025;-79
2022/03/01 00:53:34;;;;;;;18.00;10.48;;;2.20;99.90;;;;;;6071607;23;20485;-79
2022/03/01 00:56:04;;;;;;;20.70;11.20;;;2.20;99.90;;;;;;6071713;23;20014;-80
2022/03/01 00:58:30;;;;;;;19.73;10.27;;;2.20;99.90;;;;;;6048096;23;20021;-79
2022/03/01 01:00:55;;;;;;;17.55;10.30;;;2.10;99.90;;;;;;6095526;23;20014;-79
2022/03/01 01:03:21;;;;;;;18.55;10.75;;;2.40;99.90;;;;;;6095548;23;20479;-79
2022/03/01 01:05:47;;;;;;;19.75;10.43;;;2.10;99.90;;;;;;6095944;23;20014;-79
2022/03/01 01:08:13;;;;;;;19.35;11.00;;;2.00;99.90;;;;;;6071634;23;20028;-79
2022/03/01 01:10:38;;;;;;;22.08;11.45;;;2.00;99.90;;;;;;6048305;23;20030;-79
2022/03/01 01:13:04;;;;;;;20.13;11.05;;;2.00;99.90;;;;;;6048436;23;20018;-79
2022/03/01 01:15:30;;;;;;;20.15;11.65;;;1.90;99.90;;;;;;6047939;23;20022;-79
2022/03/01 01:17:55;;;;;;;17.88;10.80;;;1.90;99.90;;;;;;6048085;23;20472;-80
2022/03/01 01:20:21;;;;;;;19.85;11.25;;;1.90;99.90;;;;;;6071674;23;20520;-80
2022/03/01 01:22:47;;;;;;;18.48;10.77;;;1.90;99.90;;;;;;6072024;23;20394;-80
2022/03/01 01:25:15;;;;;;;17.08;9.82;;;1.80;99.90;;;;;;6071725;23;20233;-79
2022/03/01 01:27:43;;;;;;;19.90;11.60;;;1.90;99.90;;;;;;6071790;23;20018;-79
2022/03/01 01:30:12;;;;;;;21.00;12.30;;;1.80;99.90;;;;;;6059425;23;20025;-79
2022/03/01 01:32:38;;;;;;;17.83;10.88;;;1.80;99.90;;;;;;6100496;23;20416;-79
2022/03/01 01:35:07;;;;;;;20.77;11.00;;;2.00;99.90;;;;;;6124724;23;20025;-79
2022/03/01 01:37:33;;;;;;;23.83;12.15;;;1.80;99.90;;;;;;6102181;23;20029;-79
2022/03/01 01:39:59;;;;;;;21.65;11.13;;;2.40;99.90;;;;;;6127060;23;20025;-80
2022/03/01 01:42:25;;;;;;;17.63;10.55;;;1.80;99.90;;;;;;6127167;23;20013;-80
2022/03/01 01:44:50;;;;;;;20.52;11.50;;;1.90;99.90;;;;;;6126579;23;20055;-79
2022/03/01 01:47:16;;;;;;;17.15;10.73;;;1.80;99.90;;;;;;6102461;23;20025;-79
2022/03/01 01:49:42;;;;;;;18.20;11.52;;;1.80;99.90;;;;;;6102157;23;20032;-79
2022/03/01 01:52:08;;;;;;;20.05;11.35;;;1.70;99.90;;;;;;6127325;23;20072;-80
2022/03/01 01:54:34;;;;;;;21.77;11.98;;;1.80;99.90;;;;;;6126594;23;20057;-79
2022/03/01 01:56:59;;;;;;;21.45;11.98;;;1.60;99.90;;;;;;6126825;23;20077;-80
2022/03/01 01:59:25;;;;;;;19.98;11.60;;;1.80;99.90;;;;;;6078127;23;20036;-79
2022/03/01 02:01:51;;;;;;;18.05;11.65;;;1.50;99.90;;;;;;6126380;23;20017;-80
2022/03/01 02:04:17;;;;;;;21.48;11.35;;;2.20;99.90;;;;;;6102087;23;20357;-80
2022/03/01 02:06:53;;;;;;;19.42;11.45;;;1.50;99.90;;;;;;6101975;23;20022;-79
2022/03/01 02:09:19;;;;;;;21.45;11.75;;;1.40;99.90;;;;;;6126294;23;20413;-81
2022/03/01 02:11:45;;;;;;;21.92;12.18;;;1.50;99.90;;;;;;6126324;23;20049;-80
2022/03/01 02:14:11;;;;;;;19.85;11.43;;;1.40;99.90;;;;;;6102078;23;20028;-80
2022/03/01 02:16:36;;;;;;;21.55;12.35;;;1.40;99.90;;;;;;6101899;23;20119;-80
2022/03/01 02:19:04;;;;;;;23.67;12.43;;;1.40;99.90;;;;;;6125962;23;20021;-80
2022/03/01 02:21:31;;;;;;;22.10;12.02;;;1.30;99.90;;;;;;6101531;23;20018;-80
2022/03/01 02:23:57;;;;;;;20.75;11.20;;;1.40;99.90;;;;;;6126628;23;20044;-80
2022/03/01 02:26:23;;;;;;;18.58;11.93;;;2.40;99.90;;;;;;6077775;23;20009;-80
2022/03/01 02:28:49;;;;;;;20.05;11.57;;;1.20;99.90;;;;;;6101843;23;20162;-80
2022/03/01 02:31:14;;;;;;;22.08;11.95;;;1.10;99.90;;;;;;6101650;23;20036;-80
2022/03/01 02:33:40;;;;;;;21.85;12.43;;;1.00;99.90;;;;;;6102179;23;20017;-82
2022/03/01 02:36:06;;;;;;;20.85;12.32;;;1.70;99.90;;;;;;6126169;23;20017;-80
2022/03/01 02:38:32;;;;;;;25.15;12.52;;;1.00;99.90;;;;;;6102194;23;20014;-80
2022/03/01 02:40:57;;;;;;;21.98;12.32;;;1.00;99.90;;;;;;6126496;23;20060;-79
2022/03/01 02:43:23;;;;;;;19.02;11.90;;;1.60;99.90;;;;;;6101787;23;20018;-80
2022/03/01 02:45:49;;;;;;;22.50;12.73;;;1.00;99.90;;;;;;6126469;23;20391;-80
2022/03/01 02:48:15;;;;;;;21.33;12.00;;;1.00;99.90;;;;;;6125677;23;20112;-79
2022/03/01 02:50:40;;;;;;;21.75;12.73;;;1.00;99.90;;;;;;6078496;23;20022;-80
2022/03/01 02:53:06;;;;;;;24.42;11.90;;;0.90;99.90;;;;;;6102294;23;20021;-79
2022/03/01 02:55:32;;;;;;;22.90;12.27;;;0.90;99.90;;;;;;6101858;23;20029;-79
2022/03/01 02:57:58;;;;;;;21.95;12.05;;;0.90;99.90;;;;;;6125773;23;20021;-80
2022/03/01 03:00:24;;;;;;;22.60;13.02;;;0.80;99.90;;;;;;6101253;23;20380;-80
2022/03/01 03:02:49;;;;;;;21.23;12.27;;;1.10;99.90;;;;;;6125768;23;20022;-80
2022/03/01 03:05:15;;;;;;;21.33;12.63;;;1.00;99.90;;;;;;6126016;23;20025;-80
2022/03/01 03:07:41;;;;;;;24.13;13.27;;;0.80;99.90;;;;;;6150478;23;20048;-80
2022/03/01 03:10:07;;;;;;;25.65;13.60;;;0.80;99.90;;;;;;6101879;23;20017;-80
2022/03/01 03:12:33;;;;;;;21.50;13.82;;;0.80;99.90;;;;;;6101795;23;20056;-80
2022/03/01 03:14:59;;;;;;;28.10;14.13;;;0.80;99.90;;;;;;6101755;23;20018;-80
2022/03/01 03:17:24;;;;;;;24.67;13.32;;;0.80;99.90;;;;;;6101394;23;20027;-80
2022/03/01 03:19:50;;;;;;;25.42;14.68;;;0.80;99.90;;;;;;6101823;23;20092;-80
2022/03/01 03:22:16;;;;;;;26.42;13.77;;;0.80;99.90;;;;;;6101626;23;20013;-80
2022/03/01 03:24:42;;;;;;;25.98;14.20;;;0.70;99.90;;;;;;6101574;23;20017;-80
2022/03/01 03:27:08;;;;;;;24.08;13.63;;;0.70;99.90;;;;;;6150416;23;20021;-80
2022/03/01 03:29:33;;;;;;;22.02;13.25;;;0.70;99.90;;;;;;6073033;23;20465;-81
2022/03/01 03:31:59;;;;;;;24.35;12.98;;;0.70;99.90;;;;;;6096506;23;20496;-80
2022/03/01 03:34:25;;;;;;;23.42;13.85;;;0.70;99.90;;;;;;6072626;23;20024;-80
2022/03/01 03:36:52;;;;;;;26.38;14.77;;;1.20;99.90;;;;;;6072168;23;20025;-80
2022/03/01 03:39:18;;;;;;;27.55;14.57;;;0.60;99.90;;;;;;6072472;23;20018;-80
2022/03/01 03:41:44;;;;;;;24.95;14.40;;;0.60;99.90;;;;;;6072684;23;20017;-80
2022/03/01 03:44:10;;;;;;;27.45;14.70;;;0.50;99.90;;;;;;6096028;23;20018;-81
2022/03/01 03:46:36;;;;;;;26.38;13.55;;;0.50;99.90;;;;;;6072455;23;20533;-80
2022/03/01 03:49:03;;;;;;;28.15;14.13;;;0.50;99.90;;;;;;6096392;23;20022;-80
2022/03/01 03:51:29;;;;;;;25.50;14.50;;;0.60;99.90;;;;;;6072587;23;20018;-80
2022/03/01 03:53:55;;;;;;;25.38;14.60;;;0.40;99.90;;;;;;6048539;23;20060;-80
2022/03/01 03:56:21;;;;;;;25.27;14.50;;;0.40;99.90;;;;;;6072135;23;20033;-80
2022/03/01 03:58:46;;;;;;;27.80;13.93;;;0.40;99.90;;;;;;6071807;23;20018;-80
2022/03/01 04:01:12;;;;;;;27.30;15.38;;;0.50;99.90;;;;;;6071929;23;20081;-81
2022/03/01 04:03:38;;;;;;;22.42;13.25;;;0.90;99.90;;;;;;6072421;23;20022;-80
2022/03/01 04:06:04;;;;;;;26.40;14.25;;;0.40;99.90;;;;;;6072178;23;20017;-80
2022/03/01 04:08:30;;;;;;;23.02;13.48;;;0.40;99.90;;;;;;6072344;23;20029;-80
2022/03/01 04:10:56;;;;;;;29.35;14.27;;;0.40;99.90;;;;;;6048549;23;20030;-80
2022/03/01 04:13:24;;;;;;;28.35;14.13;;;0.50;99.90;;;;;;6048196;23;20100;-81
2022/03/01 04:15:50;;;;;;;26.88;14.18;;;0.50;99.90;;;;;;6048684;23;20121;-80
2022/03/01 04:18:16;;;;;;;21.80;12.75;;;0.50;99.90;;;;;;6096123;23;20030;-80
2022/03/01 04:20:42;;;;;;;26.55;13.40;;;0.60;99.90;;;;;;6072310;23;20474;-80
2022/03/01 04:23:08;;;;;;;24.85;13.50;;;0.60;99.90;;;;;;6024449;23;20022;-81
2022/03/01 04:25:34;;;;;;;24.95;13.82;;;0.60;99.90;;;;;;6048421;23;20038;-80
2022/03/01 04:28:00;;;;;;;24.67;13.57;;;0.60;99.90;;;;;;6071881;23;20025;-80
2022/03/01 04:30:27;;;;;;;23.38;13.07;;;0.60;99.90;;;;;;6086503;23;20029;-80
2022/03/01 04:32:53;;;;;;;23.85;12.98;;;0.60;99.90;;;;;;6100867;23;20025;-80
2022/03/01 04:35:20;;;;;;;24.92;13.50;;;0.70;99.90;;;;;;6077845;23;20017;-80
2022/03/01 04:37:46;;;;;;;25.20;13.60;;;0.70;99.90;;;;;;6150277;23;20110;-80
2022/03/01 04:40:13;;;;;;;22.08;13.13;;;0.70;99.90;;;;;;6101241;23;20041;-80
2022/03/01 04:42:39;;;;;;;22.75;12.52;;;0.70;99.90;;;;;;6101508;23;20017;-80
2022/03/01 04:45:05;;;;;;;24.30;13.43;;;0.70;99.90;;;;;;6100651;23;20029;-80
2022/03/01 04:47:31;;;;;;;40.05;13.68;;;0.80;99.90;;;;;;6076726;23;20025;-80
2022/03/01 04:49:58;;;;;;;24.35;13.20;;;1.10;99.90;;;;;;6125214;23;20025;-80
2022/03/01 04:52:24;;;;;;;22.95;12.73;;;0.80;99.90;;;;;;6125213;23;20018;-80
2022/03/01 04:54:50;;;;;;;26.17;14.00;;;0.80;99.90;;;;;;6076664;23;20445;-80
2022/03/01 04:57:16;;;;;;;22.30;13.00;;;0.80;99.90;;;;;;6124503;23;20021;-80
2022/03/01 04:59:42;;;;;;;27.67;14.18;;;0.70;99.90;;;;;;6124776;23;20013;-80
2022/03/01 05:02:07;;;;;;;26.67;14.45;;;0.80;99.90;;;;;;6100554;23;20024;-80
2022/03/01 05:04:33;;;;;;;24.70;12.98;;;1.00;99.90;;;;;;6149437;23;20018;-80
2022/03/01 05:06:59;;;;;;;25.45;13.02;;;0.80;99.90;;;;;;6100616;23;20029;-80
2022/03/01 05:09:25;;;;;;;26.25;13.63;;;0.80;99.90;;;;;;6100862;23;20025;-80
2022/03/01 05:11:51;;;;;;;21.52;12.70;;;0.90;99.90;;;;;;6102808;23;20022;-80
2022/03/01 05:14:18;;;;;;;22.65;13.00;;;0.90;99.90;;;;;;6102550;23;20017;-80
2022/03/01 05:16:45;;;;;;;31.02;14.73;;;0.90;99.90;;;;;;6151603;23;20025;-80
2022/03/01 05:19:12;;;;;;;24.00;14.38;;;0.90;99.90;;;;;;6102137;23;20499;-80
2022/03/01 05:21:38;;;;;;;25.67;12.75;;;0.80;99.90;;;;;;6103139;23;20018;-79
2022/03/01 05:24:05;;;;;;;22.70;13.20;;;0.90;99.90;;;;;;6078213;23;20013;-80
2022/03/01 05:26:31;;;;;;;24.60;12.70;;;0.80;99.90;;;;;;6078728;23;20020;-80
2022/03/01 05:28:57;;;;;;;22.80;13.48;;;0.80;99.90;;;;;;6126434;23;20017;-80
2022/03/01 05:31:24;;;;;;;24.10;13.00;;;1.40;99.90;;;;;;6126767;23;20022;-80
2022/03/01 05:33:50;;;;;;;23.90;13.45;;;0.80;99.90;;;;;;6102405;23;20021;-80
2022/03/01 05:36:17;;;;;;;23.30;13.25;;;0.80;99.90;;;;;;6102538;23;20053;-80
2022/03/01 05:38:43;;;;;;;24.98;13.85;;;0.80;99.90;;;;;;6151115;23;20044;-80
2022/03/01 05:41:09;;;;;;;24.30;12.77;;;0.90;99.90;;;;;;6100710;23;20081;-80
2022/03/01 05:43:36;;;;;;;22.52;13.00;;;0.90;99.90;;;;;;6101407;23;20497;-80
2022/03/01 05:46:02;;;;;;;24.80;12.70;;;1.00;99.90;;;;;;6101493;23;20020;-81
2022/03/01 05:48:28;;;;;;;23.02;12.93;;;1.50;99.90;;;;;;6101890;23;20358;-80
2022/03/01 05:50:55;;;;;;;26.13;12.88;;;1.00;99.90;;;;;;6125931;23;20025;-80
2022/03/01 05:53:21;;;;;;;23.83;12.55;;;1.00;99.90;;;;;;6126092;23;20018;-80
2022/03/01 05:55:47;;;;;;;24.92;13.23;;;2.00;99.90;;;;;;6101294;23;20096;-80
2022/03/01 05:58:16;;;;;;;24.67;13.25;;;1.10;99.90;;;;;;6077421;23;20057;-80
2022/03/01 06:00:45;;;;;;;22.42;12.43;;;1.50;99.90;;;;;;6101611;23;20052;-80
2022/03/01 06:03:10;;;;;;;24.30;12.40;;;1.10;99.90;;;;;;6126511;23;20013;-80
2022/03/01 06:05:36;;;;;;;26.35;13.93;;;1.20;99.90;;;;;;6102191;23;20025;-80
2022/03/01 06:08:03;;;;;;;23.70;13.10;;;1.10;99.90;;;;;;6101794;23;20061;-80
2022/03/01 06:10:28;;;;;;;22.95;13.50;;;1.10;99.90;;;;;;6126066;23;20021;-80
2022/03/01 06:12:55;;;;;;;23.95;13.30;;;1.20;99.90;;;;;;6150457;23;20055;-80
2022/03/01 06:15:21;;;;;;;21.02;12.23;;;1.10;99.90;;;;;;6150580;23;20341;-81
2022/03/01 06:17:47;;;;;;;23.92;13.60;;;1.10;99.90;;;;;;6101893;23;20010;-81
2022/03/01 06:20:12;;;;;;;21.45;12.20;;;1.10;99.90;;;;;;6125459;23;20026;-80
2022/03/01 06:22:40;;;;;;;23.90;13.25;;;1.00;99.90;;;;;;6101573;23;20032;-80
2022/03/01 06:25:07;;;;;;;27.38;13.65;;;1.10;99.90;;;;;;6101544;23;20025;-81
2022/03/01 06:27:35;;;;;;;26.25;13.60;;;1.00;99.90;;;;;;6126013;23;20061;-80
2022/03/01 06:30:02;;;;;;;23.20;13.10;;;1.50;99.90;;;;;;6100753;23;20022;-80
2022/03/01 06:32:28;;;;;;;25.30;13.50;;;1.00;99.90;;;;;;6101960;23;20021;-80
2022/03/01 06:34:54;;;;;;;24.70;13.60;;;1.00;99.90;;;;;;6076908;23;20028;-80
2022/03/01 06:37:19;;;;;;;23.10;13.30;;;1.00;99.90;;;;;;6125813;23;20024;-80
2022/03/01 06:39:46;;;;;;;22.92;12.95;;;0.90;99.90;;;;;;6125588;23;20018;-80
2022/03/01 06:42:12;;;;;;;23.45;14.23;;;0.90;99.90;;;;;;6126210;23;20117;-81
2022/03/01 06:44:39;;;;;;;23.27;13.95;;;0.90;99.90;;;;;;6077038;23;20043;-80
2022/03/01 06:47:06;;;;;;;22.27;12.68;;;0.90;99.90;;;;;;6125348;23;20027;-80
2022/03/01 06:49:32;;;;;;;24.25;13.52;;;1.30;99.90;;;;;;6077663;23;20021;-80
2022/03/01 06:51:57;;;;;;;27.17;13.82;;;1.10;99.90;;;;;;6125862;23;20072;-80
2022/03/01 06:54:23;;;;;;;22.13;13.50;;;0.90;99.90;;;;;;6101580;23;20025;-80
2022/03/01 06:56:49;;;;;;;25.52;14.13;;;0.90;99.90;;;;;;6101620;23;20021;-81
2022/03/01 06:59:15;;;;;;;25.77;13.43;;;1.00;99.90;;;;;;6150757;23;20520;-81
2022/03/01 07:01:41;;;;;;;25.35;13.48;;;0.90;99.90;;;;;;6101177;23;20053;-80
2022/03/01 07:04:07;;;;;;;25.15;13.50;;;1.00;99.90;;;;;;6101353;23;20088;-80
2022/03/01 07:06:33;;;;;;;26.95;13.93;;;1.10;99.90;;;;;;6076806;23;20021;-80
2022/03/01 07:08:59;;;;;;;23.20;12.68;;;1.20;99.90;;;;;;6126362;23;20456;-80
2022/03/01 07:11:25;;;;;;;23.70;13.07;;;1.30;99.90;;;;;;6126270;23;20068;-80
2022/03/01 07:13:51;;;;;;;26.75;13.93;;;1.80;99.90;;;;;;6148830;23;20021;-79
2022/03/01 07:16:17;;;;;;;24.05;13.05;;;1.40;99.90;;;;;;6123704;23;20045;-82
2022/03/01 07:18:43;;;;;;;24.45;12.93;;;2.20;99.90;;;;;;6126567;23;20025;-81
2022/03/01 07:21:09;;;;;;;23.52;12.55;;;2.10;99.90;;;;;;6099854;23;20021;-82
2022/03/01 07:23:35;;;;;;;23.73;13.70;;;1.70;99.90;;;;;;6102335;23;20014;-82
2022/03/01 07:26:03;;;;;;;24.88;13.27;;;1.80;99.90;;;;;;6077469;23;20024;-81
2022/03/01 07:28:28;;;;;;;24.92;13.15;;;1.80;99.90;;;;;;6101750;23;20040;-82
2022/03/01 07:30:55;;;;;;;23.67;13.23;;;2.70;99.90;;;;;;6149738;23;20501;-79
2022/03/01 07:33:20;;;;;;;23.25;13.13;;;2.10;99.90;;;;;;6125386;23;20017;-78
2022/03/01 07:35:46;;;;;;;21.55;12.68;;;2.20;99.90;;;;;;6100491;23;20045;-79
2022/03/01 07:38:12;;;;;;;25.83;12.68;;;2.30;99.90;;;;;;6101265;23;20021;-79
2022/03/01 07:40:39;;;;;;;22.02;12.35;;;2.40;99.90;;;;;;6101129;23;20024;-79
2022/03/01 07:43:06;;;;;;;23.15;13.45;;;2.50;99.90;;;;;;6101426;23;20514;-79
2022/03/01 07:45:32;;;;;;;21.15;12.52;;;2.50;99.90;;;;;;6150440;23;20044;-79
2022/03/01 07:47:58;;;;;;;24.45;13.23;;;2.70;99.90;;;;;;6125524;23;20054;-79
2022/03/01 07:50:24;;;;;;;23.92;13.13;;;2.70;99.90;;;;;;6101417;23;20029;-79
2022/03/01 07:52:50;;;;;;;20.20;11.90;;;3.10;99.90;;;;;;6126324;23;20056;-79
2022/03/01 07:55:16;;;;;;;20.27;12.15;;;2.80;99.90;;;;;;6127360;23;20017;-78
2022/03/01 07:57:42;;;;;;;21.40;12.75;;;2.90;99.90;;;;;;6126439;23;20491;-79
2022/03/01 08:00:09;;;;;;;22.33;12.18;;;3.00;99.90;;;;;;6077449;23;20017;-78
2022/03/01 08:02:36;;;;;;;23.52;13.20;;;3.20;99.90;;;;;;6102802;23;20345;-79
2022/03/01 08:05:08;;;;;;;23.23;13.13;;;3.30;99.90;;;;;;6150978;23;20021;-79
2022/03/01 08:07:34;;;;;;;22.77;12.50;;;3.40;99.90;;;;;;6101998;23;20024;-79
2022/03/01 08:09:59;;;;;;;23.70;12.93;;;3.50;99.90;;;;;;6102379;23;20057;-79
2022/03/01 08:12:26;;;;;;;24.23;12.40;;;3.90;99.90;;;;;;6102003;23;20053;-79
2022/03/01 08:14:51;;;;;;;23.75;13.27;;;3.70;99.90;;;;;;6150939;23;20056;-79
2022/03/01 08:17:19;;;;;;;23.08;12.68;;;3.80;99.90;;;;;;6101870;23;20018;-79
2022/03/01 08:19:46;;;;;;;21.48;13.05;;;3.80;99.90;;;;;;6150955;23;20017;-79
2022/03/01 08:22:12;;;;;;;23.00;12.55;;;4.10;99.90;;;;;;6101384;23;20021;-79
2022/03/01 08:24:38;;;;;;;21.90;12.80;;;4.70;99.90;;;;;;6100929;23;20052;-79
2022/03/01 08:27:03;;;;;;;21.15;12.70;;;4.10;99.90;;;;;;6124645;23;20022;-79
2022/03/01 08:29:29;;;;;;;23.60;13.35;;;4.10;99.90;;;;;;6124596;23;20050;-79
2022/03/01 08:31:56;;;;;;;25.50;12.60;;;4.20;99.90;;;;;;6095825;23;20457;-79
2022/03/01 08:34:22;;;;;;;20.60;12.30;;;4.30;99.90;;;;;;6096104;23;20049;-79
2022/03/01 08:36:48;;;;;;;22.20;12.73;;;4.40;99.90;;;;;;6047684;23;20461;-79
2022/03/01 08:39:14;;;;;;;22.50;13.10;;;4.40;99.90;;;;;;6071701;23;20077;-80
2022/03/01 08:41:39;;;;;;;21.05;12.50;;;4.30;99.90;;;;;;6096274;23;20085;-78
2022/03/01 08:44:05;;;;;;;21.70;13.30;;;4.20;99.90;;;;;;6071930;23;20018;-81
2022/03/01 08:46:31;;;;;;;21.73;12.80;;;4.40;99.90;;;;;;6095862;23;20014;-81
2022/03/01 08:48:57;;;;;;;23.42;13.40;;;4.20;99.90;;;;;;6071476;23;20053;-81
2022/03/01 08:51:23;;;;;;;18.38;11.70;;;4.30;99.90;;;;;;6095909;23;20453;-81
2022/03/01 08:53:50;;;;;;;23.20;12.63;;;4.30;99.90;;;;;;6048425;23;20093;-81
2022/03/01 08:56:16;;;;;;;21.38;12.85;;;4.30;99.90;;;;;;6095872;23;20445;-84
2022/03/01 08:58:43;;;;;;;17.80;12.23;;;5.20;99.90;;;;;;6095603;23;20089;-81
2022/03/01 09:01:09;;;;;;;22.63;13.02;;;4.30;99.90;;;;;;6071992;23;20045;-81
2022/03/01 09:03:36;;;;;;;19.42;12.05;;;4.40;99.90;;;;;;6048319;23;20029;-81
2022/03/01 09:06:05;;;;;;;21.90;12.45;;;4.50;99.90;;;;;;6049001;23;20025;-81
2022/03/01 09:08:32;;;;;;;21.48;13.32;;;4.50;99.90;;;;;;6048634;23;20022;-81
2022/03/01 09:11:00;;;;;;;22.63;13.25;;;4.60;99.90;;;;;;6095657;23;20433;-81
2022/03/01 09:13:27;;;;;;;20.58;12.70;;;4.70;99.90;;;;;;6097194;23;20014;-82
2022/03/01 09:15:52;;;;;;;20.63;12.15;;;4.90;99.90;;;;;;6096474;23;20624;-81
2022/03/01 09:18:18;;;;;;;21.77;13.00;;;4.90;99.90;;;;;;6095503;23;20018;-81
2022/03/01 09:20:44;;;;;;;18.38;11.95;;;5.10;99.90;;;;;;6071456;23;20434;-82
2022/03/01 09:23:12;;;;;;;26.45;12.75;;;5.40;99.90;;;;;;6071946;23;20116;-81
2022/03/01 09:25:40;;;;;;;22.85;13.30;;;6.10;99.90;;;;;;6096046;23;20022;-82
2022/03/01 09:28:07;;;;;;;19.77;12.55;;;7.50;99.90;;;;;;6095640;23;20018;-82
2022/03/01 09:30:38;;;;;;;20.65;12.68;;;7.90;99.80;;;;;;6109185;23;20033;-82
2022/03/01 09:33:06;;;;;;;21.77;12.85;;;8.10;97.60;;;;;;6125858;23;20021;-82
2022/03/01 09:35:34;;;;;;;20.48;12.63;;;8.30;97.70;;;;;;6077538;23;20017;-82
2022/03/01 09:38:02;;;;;;;20.90;12.60;;;8.00;97.00;;;;;;6125689;23;20024;-82
2022/03/01 09:40:28;;;;;;;20.30;13.00;;;7.90;97.20;;;;;;6101818;23;20453;-82
2022/03/01 09:42:54;;;;;;;24.95;12.98;;;8.00;97.30;;;;;;6125281;23;20137;-81
2022/03/01 09:45:20;;;;;;;21.02;13.10;;;8.00;96.70;;;;;;6101274;23;20013;-82
2022/03/01 09:47:46;;;;;;;20.52;12.52;;;7.90;97.50;;;;;;6101321;23;20021;-81
2022/03/01 09:50:13;;;;;;;18.65;12.50;;;7.90;96.80;;;;;;6151644;23;20081;-82
2022/03/01 09:52:41;;;;;;;18.45;12.07;;;7.60;97.00;;;;;;6152251;23;20479;-82
2022/03/01 09:55:08;;;;;;;20.42;13.10;;;7.60;96.80;;;;;;6101287;23;20024;-81
2022/03/01 09:57:34;;;;;;;17.15;11.60;;;7.60;96.90;;;;;;6102292;23;20060;-81
2022/03/01 10:00:03;;;;;;;19.85;11.95;;;7.50;96.60;;;;;;6126978;23;20014;-82
2022/03/01 10:02:36;;;;;;;18.52;11.75;;;7.60;96.90;;;;;;6103936;23;20019;-82
2022/03/01 10:05:03;;;;;;;22.63;13.75;;;7.90;96.60;;;;;;6127365;23;20088;-82
2022/03/01 10:07:31;;;;;;;20.30;12.10;;;8.40;96.50;;;;;;6103350;23;20017;-81
2022/03/01 10:10:12;;;;;;;21.05;13.43;;;8.90;96.40;;;;;;6103405;23;20082;-82
2022/03/01 10:12:38;;;;;;;17.92;11.95;;;9.50;96.10;;;;;;6127442;23;20033;-81
2022/03/01 10:15:06;;;;;;;19.58;12.35;;;9.50;94.70;;;;;;6079359;23;20018;-81
2022/03/01 10:17:37;;;;;;;17.92;11.40;;;9.50;93.70;;;;;;6103051;23;20017;-82
2022/03/01 10:20:23;;;;;;;24.67;11.60;;;9.60;92.40;;;;;;6127455;23;20492;-82
2022/03/01 10:22:53;;;;;;;19.08;12.30;;;9.40;93.60;;;;;;6152073;23;20019;-82
2022/03/01 10:25:22;;;;;;;18.58;12.30;;;9.30;93.80;;;;;;6103006;23;20045;-81
2022/03/01 10:27:49;;;;;;;19.80;12.05;;;9.00;93.90;;;;;;6102911;23;20021;-82
2022/03/01 10:30:30;;;;;;;23.77;12.75;;;9.00;94.20;;;;;;6127009;23;20028;-81
2022/03/01 10:33:08;;;;;;;19.40;13.00;;;8.90;94.40;;;;;;6103310;23;20392;-82
2022/03/01 10:35:36;;;;;;;17.67;11.95;;;8.90;93.90;;;;;;6102996;23;20021;-81
2022/03/01 10:38:02;;;;;;;18.02;11.23;;;8.80;93.70;;;;;;6103153;23;20064;-82
2022/03/01 10:40:29;;;;;;;18.35;11.75;;;8.90;92.90;;;;;;6103137;23;20018;-82
2022/03/01 10:43:02;;;;;;;16.63;11.50;;;9.20;92.60;;;;;;6078868;23;20041;-82
2022/03/01 10:45:37;;;;;;;18.42;12.05;;;9.50;91.80;;;;;;6102803;23;20017;-81
2022/03/01 10:48:05;;;;;;;18.42;12.73;;;10.00;91.80;;;;;;6127061;23;20040;-82
2022/03/01 10:50:31;;;;;;;18.38;11.93;;;10.40;90.90;;;;;;6126749;23;20456;-82
2022/03/01 10:52:57;;;;;;;19.77;12.20;;;10.50;89.70;;;;;;6102981;23;20053;-82
2022/03/01 10:55:24;;;;;;;16.42;11.75;;;11.20;90.20;;;;;;6102724;23;20033;-81
2022/03/01 10:57:58;;;;;;;18.23;12.38;;;11.40;87.50;;;;;;6102502;23;20092;-82
2022/03/01 11:00:24;;;;;;;16.08;11.15;;;12.10;88.30;;;;;;6126808;23;20014;-82
2022/03/01 11:02:50;;;;;;;18.80;12.50;;;12.60;85.70;;;;;;6102851;23;20049;-82
2022/03/01 11:05:15;;;;;;;16.10;11.10;;;12.90;84.70;;;;;;6102391;23;20080;-84
2022/03/01 11:07:43;;;;;;;17.08;11.75;;;13.10;81.80;;;;;;6126588;23;20040;-82
2022/03/01 11:10:12;;;;;;;17.00;11.80;;;13.30;83.70;;;;;;6102775;23;20029;-82
2022/03/01 11:12:42;;;;;;;15.50;11.55;;;13.00;80.50;;;;;;6079117;23;20056;-82
2022/03/01 11:15:37;;;;;;;17.30;11.35;;;13.00;80.40;;;;;;6102224;23;20017;-82
2022/03/01 11:18:40;;;;;;;16.60;10.95;;;13.00;77.20;;;;;;6085715;23;20025;-82
2022/03/01 11:21:08;;;;;;;17.17;11.82;;;13.40;75.70;;;;;;6102603;23;20029;-82
2022/03/01 11:23:35;;;;;;;18.08;11.90;;;13.10;77.20;;;;;;6102590;23;20049;-82
2022/03/01 11:26:15;;;;;;;17.98;12.55;;;12.80;77.40;;;;;;6126501;23;20022;-82
2022/03/01 11:28:51;;;;;;;18.17;12.80;;;13.20;77.60;;;;;;6127023;23;20345;-82
2022/03/01 11:31:21;;;;;;;18.30;12.13;;;13.50;77.60;;;;;;6101873;23;20030;-81
2022/03/01 11:34:14;;;;;;;19.77;12.63;;;13.10;75.90;;;;;;6126599;23;20068;-82
2022/03/01 11:36:52;;;;;;;17.83;12.32;;;12.10;75.70;;;;;;6126720;23;20021;-81
2022/03/01 11:39:26;;;;;;;17.73;12.30;;;11.50;78.30;;;;;;6126495;23;20005;-82
2022/03/01 11:42:00;;;;;;;19.05;12.95;;;11.40;78.90;;;;;;6126944;23;20009;-82
2022/03/01 11:44:26;;;;;;;17.27;11.63;;;10.80;78.90;;;;;;6125465;23;20017;-81
2022/03/01 11:46:52;;;;;;;22.00;12.27;;;10.50;81.10;;;;;;6126134;23;20056;-81
2022/03/01 11:49:20;;;;;;;17.25;11.57;;;10.60;81.20;;;;;;6101468;23;20014;-81
2022/03/01 11:51:47;;;;;;;17.52;11.50;;;10.60;82.30;;;;;;6125333;23;20025;-80
2022/03/01 11:54:36;;;;;;;18.25;11.52;;;10.50;81.00;;;;;;6101047;23;20025;-80
2022/03/01 11:57:05;;;;;;;19.50;12.00;;;10.50;80.70;;;;;;6125658;23;20029;-79
2022/03/01 11:59:31;;;;;;;17.08;11.48;;;10.30;81.90;;;;;;6100940;23;20076;-79
2022/03/01 12:01:58;;;;;;;16.45;11.38;;;10.20;82.40;;;;;;6100893;23;20025;-81
2022/03/01 12:04:28;;;;;;;20.30;11.60;;;9.90;81.50;;;;;;6091463;23;20021;-79
2022/03/01 12:06:55;;;;;;;17.95;10.90;;;9.90;82.10;;;;;;6116907;23;20025;-80
2022/03/01 12:09:26;;;;;;;17.45;12.07;;;9.80;81.20;;;;;;6119337;23;20460;-80
2022/03/01 12:12:04;;;;;;;17.42;11.88;;;9.90;81.90;;;;;;6095905;23;20100;-81
2022/03/01 12:14:33;;;;;;;17.45;10.82;;;9.90;80.30;;;;;;6094019;23;20037;-80
2022/03/01 12:17:00;;;;;;;15.18;11.13;;;10.00;82.10;;;;;;6117905;23;20083;-80
2022/03/01 12:19:30;;;;;;;21.52;11.82;;;10.10;81.70;;;;;;6118619;23;20017;-80
2022/03/01 12:21:58;;;;;;;18.52;10.95;;;10.20;82.00;;;;;;6093741;23;20013;-80
2022/03/01 12:24:30;;;;;;;16.88;11.30;;;10.20;81.40;;;;;;6093870;23;20051;-79
2022/03/01 12:27:01;;;;;;;18.92;12.25;;;10.20;81.30;;;;;;6093677;23;20111;-78
2022/03/01 12:29:34;;;;;;;17.92;10.73;;;10.20;80.50;;;;;;6118743;23;20021;-79
2022/03/01 12:32:12;;;;;;;16.17;10.82;;;10.30;80.90;;;;;;6118077;23;20834;-80
2022/03/01 12:34:40;;;;;;;19.30;11.57;;;10.30;81.40;;;;;;6093994;23;20055;-79